sensor_id;sensor_type;location;lat;lon;timestamp;pressure;altitude;pressure_sealevel;temperature;humidity
37066;BME280;22981;43.080;25.550;2023-02-23T00:01:55;99516.78;;;5.84;56.49
37066;BME280;22981;43.080;25.550;2023-02-23T00:04:22;99517.80;;;5.83;56.52
37066;BME280;22981;43.080;25.550;2023-02-23T00:06:50;99511.98;;;5.83;56.54
37066;BME280;22981;43.080;25.550;2023-02-23T00:09:17;99509.83;;;5.83;56.56
37066;BME280;22981;43.080;25.550;2023-02-23T00:11:48;99507.66;;;5.82;56.58
37066;BME280;22981;43.080;25.550;2023-02-23T00:14:15;99509.18;;;5.81;56.63
37066;BME280;22981;43.080;25.550;2023-02-23T00:16:42;99510.52;;;5.81;56.64
37066;BME280;22981;43.080;25.550;2023-02-23T00:19:10;99517.30;;;5.83;56.70
37066;BME280;22981;43.080;25.550;2023-02-23T00:21:39;99511.98;;;5.83;56.70
37066;BME280;22981;43.080;25.550;2023-02-23T00:24:07;99512.30;;;5.84;56.73
37066;BME280;22981;43.080;25.550;2023-02-23T00:26:35;99514.13;;;5.84;56.81
37066;BME280;22981;43.080;25.550;2023-02-23T00:29:11;99517.66;;;5.80;56.87
37066;BME280;22981;43.080;25.550;2023-02-23T00:31:34;99516.55;;;5.64;57.11
37066;BME280;22981;43.080;25.550;2023-02-23T00:34:03;99514.96;;;5.59;57.26
37066;BME280;22981;43.080;25.550;2023-02-23T00:36:31;99516.29;;;5.59;57.25
37066;BME280;22981;43.080;25.550;2023-02-23T00:38:59;99517.11;;;5.59;57.23
37066;BME280;22981;43.080;25.550;2023-02-23T00:41:26;99508.88;;;5.54;57.28
37066;BME280;22981;43.080;25.550;2023-02-23T00:43:55;99519.03;;;5.40;57.38
37066;BME280;22981;43.080;25.550;2023-02-23T00:46:22;99512.48;;;5.17;57.67
37066;BME280;22981;43.080;25.550;2023-02-23T00:48:51;99510.51;;;5.00;58.00
37066;BME280;22981;43.080;25.550;2023-02-23T00:51:20;99514.68;;;4.98;58.06
37066;BME280;22981;43.080;25.550;2023-02-23T00:53:48;99521.08;;;5.04;57.90
37066;BME280;22981;43.080;25.550;2023-02-23T00:56:14;99513.73;;;5.10;57.70
37066;BME280;22981;43.080;25.550;2023-02-23T00:58:41;99514.51;;;5.15;57.56
37066;BME280;22981;43.080;25.550;2023-02-23T01:01:09;99509.52;;;5.16;57.50
37066;BME280;22981;43.080;25.550;2023-02-23T01:19:23;99508.45;;;5.21;57.35
37066;BME280;22981;43.080;25.550;2023-02-23T01:21:50;99504.01;;;5.17;57.38
37066;BME280;22981;43.080;25.550;2023-02-23T01:24:16;99498.80;;;5.09;57.50
37066;BME280;22981;43.080;25.550;2023-02-23T01:26:43;99499.22;;;5.02;57.60
37066;BME280;22981;43.080;25.550;2023-02-23T01:29:12;99502.32;;;4.91;57.72
37066;BME280;22981;43.080;25.550;2023-02-23T01:31:40;99500.25;;;4.82;57.86
37066;BME280;22981;43.080;25.550;2023-02-23T01:34:08;99499.67;;;4.76;57.88
37066;BME280;22981;43.080;25.550;2023-02-23T01:36:37;99500.33;;;4.74;57.94
37066;BME280;22981;43.080;25.550;2023-02-23T01:39:07;99498.50;;;4.74;57.94
37066;BME280;22981;43.080;25.550;2023-02-23T01:41:36;99509.77;;;4.76;57.91
37066;BME280;22981;43.080;25.550;2023-02-23T01:44:07;99502.32;;;4.76;57.90
37066;BME280;22981;43.080;25.550;2023-02-23T01:46:35;99503.81;;;4.74;57.96
37066;BME280;22981;43.080;25.550;2023-02-23T01:49:03;99503.34;;;4.71;58.04
37066;BME280;22981;43.080;25.550;2023-02-23T01:51:39;99505.52;;;4.71;58.05
37066;BME280;22981;43.080;25.550;2023-02-23T01:54:07;99501.61;;;4.63;58.25
37066;BME280;22981;43.080;25.550;2023-02-23T01:56:31;99502.50;;;4.56;58.38
37066;BME280;22981;43.080;25.550;2023-02-23T01:59:00;99500.90;;;4.50;58.45
37066;BME280;22981;43.080;25.550;2023-02-23T02:01:27;99501.41;;;4.50;58.45
37066;BME280;22981;43.080;25.550;2023-02-23T02:03:59;99502.03;;;4.52;58.42
37066;BME280;22981;43.080;25.550;2023-02-23T02:06:26;99504.66;;;4.56;58.32
37066;BME280;22981;43.080;25.550;2023-02-23T02:08:54;99507.93;;;4.58;58.21
37066;BME280;22981;43.080;25.550;2023-02-23T02:11:22;99506.80;;;4.57;58.18
37066;BME280;22981;43.080;25.550;2023-02-23T02:27:21;99510.41;;;4.41;58.36
37066;BME280;22981;43.080;25.550;2023-02-23T02:29:55;99512.23;;;4.40;58.36
37066;BME280;22981;43.080;25.550;2023-02-23T02:32:44;99506.94;;;4.40;58.31
37066;BME280;22981;43.080;25.550;2023-02-23T02:37:59;99511.77;;;4.37;58.36
37066;BME280;22981;43.080;25.550;2023-02-23T02:42:56;99510.59;;;4.20;58.68
37066;BME280;22981;43.080;25.550;2023-02-23T02:45:26;99516.40;;;4.20;58.68
37066;BME280;22981;43.080;25.550;2023-02-23T02:50:37;99516.71;;;4.21;58.64
37066;BME280;22981;43.080;25.550;2023-02-23T02:53:06;99519.90;;;4.16;58.61
37066;BME280;22981;43.080;25.550;2023-02-23T02:55:29;99515.50;;;4.05;58.74
37066;BME280;22981;43.080;25.550;2023-02-23T02:57:59;99517.04;;;3.99;58.93
37066;BME280;22981;43.080;25.550;2023-02-23T03:00:34;99515.84;;;4.01;58.87
37066;BME280;22981;43.080;25.550;2023-02-23T03:03:30;99517.96;;;4.06;58.75
37066;BME280;22981;43.080;25.550;2023-02-23T03:06:11;99522.75;;;4.07;58.74
37066;BME280;22981;43.080;25.550;2023-02-23T03:09:02;99521.96;;;4.02;58.82
37066;BME280;22981;43.080;25.550;2023-02-23T03:11:45;99527.47;;;3.96;58.97
37066;BME280;22981;43.080;25.550;2023-02-23T03:14:44;99525.16;;;3.93;59.06
37066;BME280;22981;43.080;25.550;2023-02-23T03:17:32;99528.98;;;3.95;59.04
37066;BME280;22981;43.080;25.550;2023-02-23T03:20:25;99530.44;;;3.97;59.04
37066;BME280;22981;43.080;25.550;2023-02-23T03:23:18;99528.63;;;3.94;59.06
37066;BME280;22981;43.080;25.550;2023-02-23T03:26:07;99528.82;;;3.92;59.10
37066;BME280;22981;43.080;25.550;2023-02-23T03:29:39;99536.79;;;3.88;59.11
37066;BME280;22981;43.080;25.550;2023-02-23T03:31:40;99533.13;;;3.89;59.09
37066;BME280;22981;43.080;25.550;2023-02-23T03:34:27;99539.09;;;3.91;59.04
37066;BME280;22981;43.080;25.550;2023-02-23T03:37:24;99537.45;;;3.90;59.01
37066;BME280;22981;43.080;25.550;2023-02-23T03:40:04;99546.56;;;3.88;59.04
37066;BME280;22981;43.080;25.550;2023-02-23T03:42:45;99544.25;;;3.85;59.08
37066;BME280;22981;43.080;25.550;2023-02-23T03:45:30;99550.59;;;3.75;59.25
37066;BME280;22981;43.080;25.550;2023-02-23T03:48:15;99556.28;;;3.68;59.39
37066;BME280;22981;43.080;25.550;2023-02-23T03:51:02;99553.97;;;3.65;59.42
37066;BME280;22981;43.080;25.550;2023-02-23T03:53:52;99559.56;;;3.70;59.33
37066;BME280;22981;43.080;25.550;2023-02-23T03:56:34;99561.39;;;3.70;59.23
37066;BME280;22981;43.080;25.550;2023-02-23T03:59:19;99560.56;;;3.69;59.24
37066;BME280;22981;43.080;25.550;2023-02-23T04:02:05;99564.38;;;3.67;59.29
37066;BME280;22981;43.080;25.550;2023-02-23T04:04:50;99560.28;;;3.60;59.43
37066;BME280;22981;43.080;25.550;2023-02-23T04:07:36;99568.05;;;3.62;59.39
37066;BME280;22981;43.080;25.550;2023-02-23T04:10:22;99564.25;;;3.60;59.39
37066;BME280;22981;43.080;25.550;2023-02-23T04:13:11;99566.41;;;3.61;59.37
37066;BME280;22981;43.080;25.550;2023-02-23T04:15:59;99559.94;;;3.59;59.39
37066;BME280;22981;43.080;25.550;2023-02-23T04:18:11;99558.61;;;3.59;59.37
37066;BME280;22981;43.080;25.550;2023-02-23T04:20:37;99555.14;;;3.59;59.39
37066;BME280;22981;43.080;25.550;2023-02-23T04:23:04;99555.83;;;3.57;59.42
37066;BME280;22981;43.080;25.550;2023-02-23T04:25:31;99558.83;;;3.49;59.54
37066;BME280;22981;43.080;25.550;2023-02-23T04:27:58;99562.02;;;3.37;59.71
37066;BME280;22981;43.080;25.550;2023-02-23T04:30:24;99567.69;;;3.25;59.99
37066;BME280;22981;43.080;25.550;2023-02-23T04:32:53;99565.38;;;3.22;60.06
37066;BME280;22981;43.080;25.550;2023-02-23T04:35:20;99572.48;;;3.26;60.02
37066;BME280;22981;43.080;25.550;2023-02-23T04:37:47;99567.00;;;3.32;59.89
37066;BME280;22981;43.080;25.550;2023-02-23T04:40:14;99574.25;;;3.34;59.75
37066;BME280;22981;43.080;25.550;2023-02-23T04:42:40;99570.78;;;3.33;59.74
37066;BME280;22981;43.080;25.550;2023-02-23T04:45:07;99575.27;;;3.29;59.83
37066;BME280;22981;43.080;25.550;2023-02-23T04:47:34;99570.30;;;3.30;59.82
37066;BME280;22981;43.080;25.550;2023-02-23T04:50:02;99577.27;;;3.31;59.87
37066;BME280;22981;43.080;25.550;2023-02-23T04:52:28;99579.23;;;3.33;59.82
37066;BME280;22981;43.080;25.550;2023-02-23T04:54:56;99580.05;;;3.33;59.79
37066;BME280;22981;43.080;25.550;2023-02-23T04:57:22;99579.73;;;3.32;59.76
37066;BME280;22981;43.080;25.550;2023-02-23T04:59:50;99577.09;;;3.28;59.81
37066;BME280;22981;43.080;25.550;2023-02-23T05:02:16;99582.91;;;3.19;59.93
37066;BME280;22981;43.080;25.550;2023-02-23T05:04:43;99584.91;;;3.13;60.06
37066;BME280;22981;43.080;25.550;2023-02-23T05:07:10;99584.09;;;3.09;60.12
37066;BME280;22981;43.080;25.550;2023-02-23T05:09:37;99590.04;;;3.07;60.21
37066;BME280;22981;43.080;25.550;2023-02-23T05:12:04;99589.53;;;3.11;60.13
37066;BME280;22981;43.080;25.550;2023-02-23T05:14:30;99591.53;;;3.13;60.05
37066;BME280;22981;43.080;25.550;2023-02-23T05:16:57;99593.34;;;3.13;60.03
37066;BME280;22981;43.080;25.550;2023-02-23T05:19:24;99596.81;;;3.13;60.08
37066;BME280;22981;43.080;25.550;2023-02-23T05:21:51;99604.57;;;3.15;60.09
37066;BME280;22981;43.080;25.550;2023-02-23T05:24:17;99606.54;;;3.17;60.06
37066;BME280;22981;43.080;25.550;2023-02-23T05:26:44;99604.57;;;3.15;60.10
37066;BME280;22981;43.080;25.550;2023-02-23T05:29:12;99614.52;;;3.13;60.12
37066;BME280;22981;43.080;25.550;2023-02-23T05:31:38;99619.95;;;3.07;60.25
37066;BME280;22981;43.080;25.550;2023-02-23T05:34:05;99619.31;;;3.01;60.44
37066;BME280;22981;43.080;25.550;2023-02-23T05:36:32;99629.07;;;3.00;60.54
37066;BME280;22981;43.080;25.550;2023-02-23T05:38:59;99631.72;;;2.96;60.60
37066;BME280;22981;43.080;25.550;2023-02-23T05:41:26;99634.69;;;2.97;60.62
37066;BME280;22981;43.080;25.550;2023-02-23T05:43:53;99638.66;;;2.93;60.62
37066;BME280;22981;43.080;25.550;2023-02-23T05:46:21;99646.77;;;2.96;60.66
37066;BME280;22981;43.080;25.550;2023-02-23T05:48:49;99654.84;;;3.03;60.59
37066;BME280;22981;43.080;25.550;2023-02-23T05:51:16;99646.25;;;3.13;60.44
37066;BME280;22981;43.080;25.550;2023-02-23T05:53:43;99644.75;;;3.22;60.36
37066;BME280;22981;43.080;25.550;2023-02-23T05:56:12;99650.99;;;3.34;60.19
37066;BME280;22981;43.080;25.550;2023-02-23T05:58:41;99654.45;;;3.42;60.00
37066;BME280;22981;43.080;25.550;2023-02-23T06:01:08;99654.80;;;3.47;60.01
37066;BME280;22981;43.080;25.550;2023-02-23T06:03:34;99652.78;;;3.49;60.00
37066;BME280;22981;43.080;25.550;2023-02-23T06:06:02;99663.05;;;3.48;60.05
37066;BME280;22981;43.080;25.550;2023-02-23T06:08:29;99666.84;;;3.50;60.14
37066;BME280;22981;43.080;25.550;2023-02-23T06:10:56;99661.88;;;3.51;60.10
37066;BME280;22981;43.080;25.550;2023-02-23T06:13:23;99671.64;;;3.50;60.23
37066;BME280;22981;43.080;25.550;2023-02-23T06:15:50;99675.28;;;3.54;60.30
37066;BME280;22981;43.080;25.550;2023-02-23T06:18:16;99675.59;;;3.59;60.27
37066;BME280;22981;43.080;25.550;2023-02-23T06:20:45;99678.72;;;3.66;60.31
37066;BME280;22981;43.080;25.550;2023-02-23T06:23:12;99676.67;;;3.85;60.10
37066;BME280;22981;43.080;25.550;2023-02-23T06:25:40;99687.52;;;4.06;59.81
37066;BME280;22981;43.080;25.550;2023-02-23T06:28:07;99681.94;;;4.28;59.53
37066;BME280;22981;43.080;25.550;2023-02-23T06:30:35;99683.88;;;4.42;59.31
37066;BME280;22981;43.080;25.550;2023-02-23T06:33:02;99684.12;;;4.56;59.18
37066;BME280;22981;43.080;25.550;2023-02-23T06:35:30;99684.88;;;4.68;59.15
37066;BME280;22981;43.080;25.550;2023-02-23T06:37:57;99683.97;;;4.80;59.12
37066;BME280;22981;43.080;25.550;2023-02-23T06:40:24;99688.20;;;4.89;59.02
37066;BME280;22981;43.080;25.550;2023-02-23T06:42:51;99685.15;;;4.96;59.00
37066;BME280;22981;43.080;25.550;2023-02-23T06:45:18;99690.11;;;4.99;59.08
37066;BME280;22981;43.080;25.550;2023-02-23T06:47:45;99689.89;;;5.05;59.19
37066;BME280;22981;43.080;25.550;2023-02-23T06:50:12;99692.66;;;5.12;59.21
37066;BME280;22981;43.080;25.550;2023-02-23T06:52:39;99689.52;;;5.31;59.16
37066;BME280;22981;43.080;25.550;2023-02-23T06:55:06;99688.25;;;5.57;58.88
37066;BME280;22981;43.080;25.550;2023-02-23T06:57:33;99689.66;;;5.67;58.82
37066;BME280;22981;43.080;25.550;2023-02-23T07:00:00;99689.10;;;5.72;58.91
37066;BME280;22981;43.080;25.550;2023-02-23T07:02:27;99689.52;;;5.80;58.92
37066;BME280;22981;43.080;25.550;2023-02-23T07:04:54;99680.58;;;5.95;58.84
37066;BME280;22981;43.080;25.550;2023-02-23T07:07:21;99687.25;;;6.06;58.82
37066;BME280;22981;43.080;25.550;2023-02-23T07:09:48;99686.33;;;6.14;58.89
37066;BME280;22981;43.080;25.550;2023-02-23T07:12:15;99686.23;;;6.22;58.90
37066;BME280;22981;43.080;25.550;2023-02-23T07:14:42;99686.18;;;6.26;59.04
37066;BME280;22981;43.080;25.550;2023-02-23T07:17:08;99689.16;;;6.38;59.14
37066;BME280;22981;43.080;25.550;2023-02-23T07:19:35;99697.63;;;6.52;59.00
37066;BME280;22981;43.080;25.550;2023-02-23T07:22:02;99698.73;;;6.68;58.83
37066;BME280;22981;43.080;25.550;2023-02-23T07:24:30;99698.41;;;6.78;58.69
37066;BME280;22981;43.080;25.550;2023-02-23T07:26:57;99691.94;;;6.98;58.51
37066;BME280;22981;43.080;25.550;2023-02-23T07:29:24;99699.16;;;7.15;58.40
37066;BME280;22981;43.080;25.550;2023-02-23T07:31:52;99689.77;;;7.30;58.38
37066;BME280;22981;43.080;25.550;2023-02-23T07:34:19;99696.45;;;7.47;58.31
37066;BME280;22981;43.080;25.550;2023-02-23T07:36:46;99690.63;;;7.65;58.19
37066;BME280;22981;43.080;25.550;2023-02-23T07:39:13;99692.71;;;7.87;57.98
37066;BME280;22981;43.080;25.550;2023-02-23T07:41:40;99692.09;;;8.02;57.82
37066;BME280;22981;43.080;25.550;2023-02-23T07:44:06;99687.64;;;8.16;57.71
37066;BME280;22981;43.080;25.550;2023-02-23T07:46:33;99689.24;;;8.34;57.64
37066;BME280;22981;43.080;25.550;2023-02-23T07:49:00;99686.77;;;8.50;57.50
37066;BME280;22981;43.080;25.550;2023-02-23T07:51:31;99686.30;;;8.64;57.41
37066;BME280;22981;43.080;25.550;2023-02-23T07:54:01;99692.17;;;8.76;57.24
37066;BME280;22981;43.080;25.550;2023-02-23T07:56:31;99693.95;;;8.93;57.12
37066;BME280;22981;43.080;25.550;2023-02-23T07:59:01;99690.16;;;9.12;57.02
37066;BME280;22981;43.080;25.550;2023-02-23T08:01:28;99688.22;;;9.36;56.74
37066;BME280;22981;43.080;25.550;2023-02-23T08:03:57;99693.56;;;9.56;56.46
37066;BME280;22981;43.080;25.550;2023-02-23T08:06:32;99685.61;;;9.85;56.29
37066;BME280;22981;43.080;25.550;2023-02-23T08:08:57;99688.72;;;10.11;55.89
37066;BME280;22981;43.080;25.550;2023-02-23T08:11:25;99690.42;;;10.21;55.63
37066;BME280;22981;43.080;25.550;2023-02-23T08:13:55;99689.94;;;10.44;55.48
37066;BME280;22981;43.080;25.550;2023-02-23T08:16:23;99695.99;;;10.71;55.20
37066;BME280;22981;43.080;25.550;2023-02-23T08:18:50;99693.99;;;10.92;54.86
37066;BME280;22981;43.080;25.550;2023-02-23T08:21:17;99698.83;;;11.08;54.72
37066;BME280;22981;43.080;25.550;2023-02-23T08:23:44;99691.38;;;11.26;54.53
37066;BME280;22981;43.080;25.550;2023-02-23T08:26:10;99694.33;;;11.43;54.22
37066;BME280;22981;43.080;25.550;2023-02-23T08:28:37;99692.67;;;11.58;54.12
37066;BME280;22981;43.080;25.550;2023-02-23T08:31:10;99688.94;;;11.84;54.02
37066;BME280;22981;43.080;25.550;2023-02-23T08:33:34;99689.98;;;12.19;53.54
37066;BME280;22981;43.080;25.550;2023-02-23T08:36:02;99683.67;;;12.53;53.14
37066;BME280;22981;43.080;25.550;2023-02-23T08:38:29;99676.09;;;12.71;52.56
37066;BME280;22981;43.080;25.550;2023-02-23T08:40:58;99683.38;;;12.82;52.44
37066;BME280;22981;43.080;25.550;2023-02-23T08:43:24;99674.31;;;12.95;52.33
37066;BME280;22981;43.080;25.550;2023-02-23T08:45:51;99677.97;;;13.12;52.16
37066;BME280;22981;43.080;25.550;2023-02-23T08:48:18;99679.78;;;13.30;51.85
37066;BME280;22981;43.080;25.550;2023-02-23T08:50:46;99673.61;;;13.41;51.44
37066;BME280;22981;43.080;25.550;2023-02-23T08:53:14;99677.30;;;13.49;51.14
37066;BME280;22981;43.080;25.550;2023-02-23T08:55:41;99671.15;;;13.63;50.99
37066;BME280;22981;43.080;25.550;2023-02-23T08:58:08;99677.70;;;13.79;50.71
37066;BME280;22981;43.080;25.550;2023-02-23T09:00:36;99671.36;;;13.97;50.64
37066;BME280;22981;43.080;25.550;2023-02-23T09:03:03;99668.66;;;14.23;50.25
37066;BME280;22981;43.080;25.550;2023-02-23T09:05:30;99676.66;;;14.46;49.97
37066;BME280;22981;43.080;25.550;2023-02-23T09:07:57;99676.36;;;14.71;49.59
37066;BME280;22981;43.080;25.550;2023-02-23T09:10:24;99676.34;;;15.00;49.35
37066;BME280;22981;43.080;25.550;2023-02-23T09:12:52;99668.95;;;15.26;48.80
37066;BME280;22981;43.080;25.550;2023-02-23T09:15:19;99669.23;;;15.44;48.25
37066;BME280;22981;43.080;25.550;2023-02-23T09:17:46;99670.49;;;15.56;47.90
37066;BME280;22981;43.080;25.550;2023-02-23T09:20:14;99670.98;;;15.70;47.91
37066;BME280;22981;43.080;25.550;2023-02-23T09:22:41;99673.72;;;15.92;47.88
37066;BME280;22981;43.080;25.550;2023-02-23T09:25:10;99661.30;;;16.13;47.11
37066;BME280;22981;43.080;25.550;2023-02-23T09:27:37;99667.20;;;16.10;46.45
37066;BME280;22981;43.080;25.550;2023-02-23T09:30:04;99658.87;;;16.14;46.44
37066;BME280;22981;43.080;25.550;2023-02-23T09:32:31;99666.01;;;16.22;46.27
37066;BME280;22981;43.080;25.550;2023-02-23T09:34:57;99660.22;;;16.36;46.22
37066;BME280;22981;43.080;25.550;2023-02-23T09:37:24;99655.77;;;16.46;46.41
37066;BME280;22981;43.080;25.550;2023-02-23T09:39:51;99651.93;;;16.67;46.36
37066;BME280;22981;43.080;25.550;2023-02-23T09:42:26;99660.16;;;16.77;46.20
37066;BME280;22981;43.080;25.550;2023-02-23T09:49:51;99652.70;;;17.21;45.60
37066;BME280;22981;43.080;25.550;2023-02-23T09:52:24;99651.45;;;17.32;45.59
37066;BME280;22981;43.080;25.550;2023-02-23T09:54:47;99652.66;;;17.48;45.28
37066;BME280;22981;43.080;25.550;2023-02-23T09:57:16;99647.89;;;17.66;44.94
37066;BME280;22981;43.080;25.550;2023-02-23T09:59:42;99646.59;;;17.73;44.71
37066;BME280;22981;43.080;25.550;2023-02-23T10:04:39;99645.61;;;17.87;44.60
37066;BME280;22981;43.080;25.550;2023-02-23T10:12:34;99633.78;;;18.11;44.13
37066;BME280;22981;43.080;25.550;2023-02-23T10:17:33;99638.47;;;18.31;43.38
37066;BME280;22981;43.080;25.550;2023-02-23T10:20:18;99633.31;;;18.32;43.41
37066;BME280;22981;43.080;25.550;2023-02-23T10:22:41;99628.99;;;18.36;43.43
37066;BME280;22981;43.080;25.550;2023-02-23T10:25:13;99627.93;;;18.37;43.42
37066;BME280;22981;43.080;25.550;2023-02-23T10:27:41;99625.21;;;18.40;43.14
37066;BME280;22981;43.080;25.550;2023-02-23T10:30:27;99627.66;;;18.39;43.21
37066;BME280;22981;43.080;25.550;2023-02-23T10:32:40;99629.32;;;18.50;43.17
37066;BME280;22981;43.080;25.550;2023-02-23T10:35:14;99626.63;;;18.60;42.98
37066;BME280;22981;43.080;25.550;2023-02-23T10:37:36;99630.45;;;18.80;42.74
37066;BME280;22981;43.080;25.550;2023-02-23T10:40:16;99625.88;;;18.90;42.49
37066;BME280;22981;43.080;25.550;2023-02-23T10:42:44;99622.61;;;19.01;42.05
37066;BME280;22981;43.080;25.550;2023-02-23T10:45:18;99623.98;;;18.98;42.27
37066;BME280;22981;43.080;25.550;2023-02-23T10:47:46;99617.47;;;19.07;41.94
37066;BME280;22981;43.080;25.550;2023-02-23T10:50:15;99615.58;;;19.03;41.97
37066;BME280;22981;43.080;25.550;2023-02-23T10:52:43;99612.57;;;18.96;41.94
37066;BME280;22981;43.080;25.550;2023-02-23T10:55:21;99608.23;;;18.83;42.07
37066;BME280;22981;43.080;25.550;2023-02-23T10:57:48;99607.41;;;18.80;42.24
37066;BME280;22981;43.080;25.550;2023-02-23T11:02:46;99607.08;;;18.58;42.12
37066;BME280;22981;43.080;25.550;2023-02-23T11:05:30;99611.97;;;18.51;42.19
37066;BME280;22981;43.080;25.550;2023-02-23T11:10:41;99598.41;;;18.56;42.13
37066;BME280;22981;43.080;25.550;2023-02-23T11:13:20;99596.52;;;18.62;42.07
37066;BME280;22981;43.080;25.550;2023-02-23T11:15:36;99595.44;;;18.65;42.03
37066;BME280;22981;43.080;25.550;2023-02-23T11:18:04;99595.42;;;18.58;41.94
37066;BME280;22981;43.080;25.550;2023-02-23T11:20:32;99596.79;;;18.55;41.92
37066;BME280;22981;43.080;25.550;2023-02-23T11:23:14;99591.63;;;18.61;41.98
37066;BME280;22981;43.080;25.550;2023-02-23T11:25:37;99590.34;;;18.71;41.75
37066;BME280;22981;43.080;25.550;2023-02-23T11:28:09;99592.19;;;18.66;41.63
37066;BME280;22981;43.080;25.550;2023-02-23T11:30:35;99588.39;;;18.64;41.73
37066;BME280;22981;43.080;25.550;2023-02-23T11:33:04;99588.69;;;18.70;41.59
37066;BME280;22981;43.080;25.550;2023-02-23T11:35:36;99590.34;;;18.76;41.50
37066;BME280;22981;43.080;25.550;2023-02-23T11:38:22;99594.95;;;18.86;41.28
37066;BME280;22981;43.080;25.550;2023-02-23T11:43:30;99590.59;;;19.00;40.93
37066;BME280;22981;43.080;25.550;2023-02-23T11:45:57;99591.96;;;18.95;40.88
37066;BME280;22981;43.080;25.550;2023-02-23T11:48:26;99587.63;;;19.02;40.97
37066;BME280;22981;43.080;25.550;2023-02-23T11:50:54;99586.27;;;19.07;40.85
37066;BME280;22981;43.080;25.550;2023-02-23T11:55:53;99589.24;;;19.08;40.91
37066;BME280;22981;43.080;25.550;2023-02-23T11:58:26;99592.49;;;19.13;40.83
37066;BME280;22981;43.080;25.550;2023-02-23T12:00:53;99596.30;;;19.12;40.70
37066;BME280;22981;43.080;25.550;2023-02-23T12:03:20;99592.50;;;19.00;40.71
37066;BME280;22981;43.080;25.550;2023-02-23T12:05:48;99593.31;;;18.83;40.67
37066;BME280;22981;43.080;25.550;2023-02-23T12:08:19;99583.55;;;18.82;40.75
37066;BME280;22981;43.080;25.550;2023-02-23T12:10:43;99589.78;;;18.80;40.74
37066;BME280;22981;43.080;25.550;2023-02-23T12:20:45;99579.46;;;19.17;40.46
37066;BME280;22981;43.080;25.550;2023-02-23T12:23:15;99583.24;;;19.26;40.36
37066;BME280;22981;43.080;25.550;2023-02-23T12:25:55;99575.38;;;19.25;40.17
37066;BME280;22981;43.080;25.550;2023-02-23T12:28:28;99581.08;;;19.36;40.18
37066;BME280;22981;43.080;25.550;2023-02-23T12:30:59;99583.77;;;19.39;39.99
37066;BME280;22981;43.080;25.550;2023-02-23T12:33:39;99580.27;;;19.33;39.94
37066;BME280;22981;43.080;25.550;2023-02-23T12:38:45;99580.27;;;19.25;39.86
37066;BME280;22981;43.080;25.550;2023-02-23T12:41:12;99582.42;;;19.34;39.74
37066;BME280;22981;43.080;25.550;2023-02-23T12:46:27;99580.51;;;19.39;39.73
37066;BME280;22981;43.080;25.550;2023-02-23T12:49:03;99581.00;;;19.57;39.36
37066;BME280;22981;43.080;25.550;2023-02-23T12:54:03;99587.89;;;19.08;39.74
37066;BME280;22981;43.080;25.550;2023-02-23T13:14:29;99589.52;;;18.73;40.32
37066;BME280;22981;43.080;25.550;2023-02-23T13:16:56;99590.84;;;18.68;40.48
37066;BME280;22981;43.080;25.550;2023-02-23T13:22:15;99585.09;;;18.39;40.68
37066;BME280;22981;43.080;25.550;2023-02-23T13:24:35;99587.77;;;18.16;40.99
37066;BME280;22981;43.080;25.550;2023-02-23T13:27:17;99584.96;;;17.98;41.17
37066;BME280;22981;43.080;25.550;2023-02-23T13:29:44;99588.97;;;17.86;41.41
37066;BME280;22981;43.080;25.550;2023-02-23T13:32:13;99590.34;;;17.83;41.58
37066;BME280;22981;43.080;25.550;2023-02-23T13:34:44;99587.41;;;17.97;41.44
37066;BME280;22981;43.080;25.550;2023-02-23T13:37:12;99590.13;;;18.00;41.34
37066;BME280;22981;43.080;25.550;2023-02-23T13:39:48;99593.95;;;18.04;41.35
37066;BME280;22981;43.080;25.550;2023-02-23T13:42:19;99589.33;;;18.07;41.32
37066;BME280;22981;43.080;25.550;2023-02-23T13:44:47;99588.54;;;18.09;41.30
37066;BME280;22981;43.080;25.550;2023-02-23T13:50:04;99595.75;;;17.86;41.60
37066;BME280;22981;43.080;25.550;2023-02-23T13:52:37;99593.79;;;17.73;41.75
37066;BME280;22981;43.080;25.550;2023-02-23T13:57:54;99601.72;;;17.40;42.13
37066;BME280;22981;43.080;25.550;2023-02-23T14:00:22;99599.73;;;17.28;42.36
37066;BME280;22981;43.080;25.550;2023-02-23T14:02:49;99603.16;;;17.16;42.52
37066;BME280;22981;43.080;25.550;2023-02-23T14:05:17;99595.76;;;17.01;42.70
37066;BME280;22981;43.080;25.550;2023-02-23T14:07:46;99600.28;;;16.93;42.87
37066;BME280;22981;43.080;25.550;2023-02-23T14:10:23;99601.06;;;16.88;42.95
37066;BME280;22981;43.080;25.550;2023-02-23T14:13:03;99605.31;;;16.79;43.13
37066;BME280;22981;43.080;25.550;2023-02-23T14:18:04;99596.89;;;16.51;43.46
37066;BME280;22981;43.080;25.550;2023-02-23T14:25:50;99599.92;;;16.30;43.86
37066;BME280;22981;43.080;25.550;2023-02-23T14:28:25;99601.26;;;16.27;43.93
37066;BME280;22981;43.080;25.550;2023-02-23T14:31:01;99602.25;;;16.21;44.03
37066;BME280;22981;43.080;25.550;2023-02-23T14:36:26;99600.44;;;16.05;44.26
37066;BME280;22981;43.080;25.550;2023-02-23T14:38:32;99597.09;;;15.95;44.43
37066;BME280;22981;43.080;25.550;2023-02-23T14:41:01;99593.70;;;15.83;44.59
37066;BME280;22981;43.080;25.550;2023-02-23T14:43:38;99591.16;;;15.74;44.72
37066;BME280;22981;43.080;25.550;2023-02-23T14:46:00;99597.56;;;15.68;44.85
37066;BME280;22981;43.080;25.550;2023-02-23T14:48:29;99599.27;;;15.57;45.00
37066;BME280;22981;43.080;25.550;2023-02-23T14:51:12;99596.44;;;15.47;45.18
37066;BME280;22981;43.080;25.550;2023-02-23T14:53:41;99595.18;;;15.35;45.30
37066;BME280;22981;43.080;25.550;2023-02-23T14:56:17;99593.44;;;15.26;45.38
37066;BME280;22981;43.080;25.550;2023-02-23T14:58:48;99591.69;;;15.18;45.51
37066;BME280;22981;43.080;25.550;2023-02-23T15:01:13;99598.36;;;15.13;45.59
37066;BME280;22981;43.080;25.550;2023-02-23T15:03:41;99597.41;;;15.05;45.69
37066;BME280;22981;43.080;25.550;2023-02-23T15:06:08;99600.52;;;14.96;45.77